createdAt,value
2023-09-17T00:01:48.199Z,101125.41
2023-09-17T00:04:16.434Z,101121.53
2023-09-17T00:06:44.694Z,101121.53
2023-09-17T00:09:14.405Z,101117.19
2023-09-17T00:11:42.376Z,101111.69
2023-09-17T00:14:10.378Z,101119.13
2023-09-17T00:16:40.006Z,101119.13
2023-09-17T00:19:08.845Z,101113.66
2023-09-17T00:21:36.763Z,101120.75
2023-09-17T00:24:04.903Z,101114.44
2023-09-17T00:26:34.351Z,101119.13
2023-09-17T00:29:02.841Z,101119.13
2023-09-17T00:31:30.897Z,101117.53
2023-09-17T00:33:58.948Z,101115.59
2023-09-17T00:36:27.760Z,101115.59
2023-09-17T00:38:55.779Z,101117.53
2023-09-17T00:41:23.849Z,101111.25
2023-09-17T00:43:53.460Z,101101.09
2023-09-17T00:46:21.975Z,101101.09
2023-09-17T00:48:50.166Z,101101.09
2023-09-17T00:51:18.178Z,101100.28
2023-09-17T00:53:46.214Z,101095.59
2023-09-17T00:56:14.215Z,101093.69
2023-09-17T00:58:42.520Z,101091.28
2023-09-17T01:01:13.202Z,101094.03
2023-09-17T01:03:41.537Z,101090.47
2023-09-17T01:06:12.696Z,101098.34
2023-09-17T01:08:42.090Z,101095.97
2023-09-17T01:11:11.255Z,101096.78
2023-09-17T01:13:42.038Z,101101.44
2023-09-17T01:16:11.818Z,101088.56
2023-09-17T01:18:39.885Z,101094.81
2023-09-17T01:21:12.592Z,101094.03
2023-09-17T01:23:45.109Z,101086.94
2023-09-17T01:26:17.019Z,101092.44
2023-09-17T01:28:46.507Z,101091.66
2023-09-17T01:31:17.440Z,101092.44
2023-09-17T01:33:45.478Z,101086.94
2023-09-17T01:36:16.924Z,101093.22
2023-09-17T01:38:48.448Z,101091.66
2023-09-17T01:41:16.885Z,101090.81
2023-09-17T01:43:46.843Z,101092.44
2023-09-17T01:46:17.878Z,101101.78
2023-09-17T01:48:47.398Z,101097.13
2023-09-17T01:51:15.798Z,101093.56
2023-09-17T01:53:44.214Z,101097.13
2023-09-17T01:56:14.665Z,101097.13
2023-09-17T01:58:42.671Z,101093.56
2023-09-17T02:01:12.178Z,101096.31
2023-09-17T02:03:40.403Z,101100.22
2023-09-17T02:06:08.416Z,101092.78
2023-09-17T02:08:37.885Z,101103.75
2023-09-17T02:11:07.700Z,101101.00
2023-09-17T02:13:35.806Z,101106.50
2023-09-17T02:16:04.311Z,101100.22
2023-09-17T02:18:33.455Z,101093.47
2023-09-17T02:21:01.518Z,101095.88
2023-09-17T02:23:29.516Z,101101.34
2023-09-17T02:25:57.639Z,101106.84
2023-09-17T02:28:25.807Z,101101.72
2023-09-17T02:30:53.905Z,101097.00
2023-09-17T02:33:21.897Z,101106.41
2023-09-17T02:35:51.725Z,101104.44
2023-09-17T02:38:20.036Z,101110.28
2023-09-17T02:40:48.117Z,101106.41
2023-09-17T02:43:16.274Z,101105.63
2023-09-17T02:45:45.156Z,101110.28
2023-09-17T02:48:14.321Z,101106.41
2023-09-17T02:50:42.359Z,101112.22
2023-09-17T02:53:12.114Z,101108.72
2023-09-17T02:55:40.885Z,101104.38
2023-09-17T02:58:12.118Z,101111.44
2023-09-17T03:00:40.978Z,101103.22
2023-09-17T03:03:09.061Z,101105.97
2023-09-17T03:05:37.092Z,101105.97
2023-09-17T03:08:06.919Z,101107.09
2023-09-17T03:10:43.141Z,101116.13
2023-09-17T03:13:12.584Z,101109.06
2023-09-17T03:15:41.338Z,101111.81
2023-09-17T03:18:09.328Z,101107.09
2023-09-17T03:20:39.298Z,101106.31
2023-09-17T03:23:08.017Z,101103.56
2023-09-17T03:25:37.725Z,101105.16
2023-09-17T03:28:06.357Z,101105.50
2023-09-17T03:30:34.084Z,101106.31
2023-09-17T03:33:05.313Z,101107.09
2023-09-17T03:35:34.767Z,101102.75
2023-09-17T03:38:02.705Z,101109.06
2023-09-17T03:40:30.836Z,101108.25
2023-09-17T03:43:00.198Z,101101.19
2023-09-17T03:45:28.386Z,101105.84
2023-09-17T03:47:56.374Z,101105.06
2023-09-17T03:50:24.778Z,101106.66
2023-09-17T03:52:55.223Z,101109.41
2023-09-17T03:55:25.193Z,101109.41
2023-09-17T03:57:54.296Z,101110.56
2023-09-17T04:00:25.177Z,101106.66
2023-09-17T04:02:54.091Z,101106.66
2023-09-17T04:05:22.850Z,101102.34
2023-09-17T04:07:50.934Z,101105.06
2023-09-17T04:10:19.970Z,101103.47
2023-09-17T04:12:48.627Z,101100.72
2023-09-17T04:15:18.187Z,101097.53
2023-09-17T04:17:48.544Z,101100.25
2023-09-17T04:20:19.858Z,101099.47
2023-09-17T04:22:50.362Z,101105.75
2023-09-17T04:25:20.173Z,101106.88
2023-09-17T04:27:49.038Z,101108.84
2023-09-17T04:30:18.047Z,101110.00
2023-09-17T04:32:48.954Z,101116.25
2023-09-17T04:35:18.784Z,101118.22
2023-09-17T04:37:48.360Z,101119.00
2023-09-17T04:40:16.817Z,101124.50
2023-09-17T04:42:47.254Z,101131.09
2023-09-17T04:45:33.833Z,101134.66
2023-09-17T04:48:03.331Z,101138.19
2023-09-17T04:50:31.489Z,101142.06
2023-09-17T04:52:59.968Z,101142.06
2023-09-17T04:55:27.857Z,101147.53
2023-09-17T04:57:56.041Z,101154.19
2023-09-17T05:00:24.222Z,101152.25
2023-09-17T05:02:52.315Z,101154.97
2023-09-17T05:05:25.019Z,101154.19
2023-09-17T05:07:54.885Z,101154.97
2023-09-17T05:10:23.061Z,101162.41
2023-09-17T05:12:51.121Z,101162.41
2023-09-17T05:15:19.246Z,101166.28
2023-09-17T05:17:47.337Z,101171.78
2023-09-17T05:20:15.486Z,101168.25
2023-09-17T05:22:44.962Z,101168.25
2023-09-17T05:25:12.980Z,101166.28
2023-09-17T05:27:41.089Z,101165.50
2023-09-17T05:30:10.305Z,101160.03
2023-09-17T05:32:38.338Z,101163.91
2023-09-17T05:35:08.558Z,101163.09
2023-09-17T05:37:36.566Z,101164.69
2023-09-17T05:40:08.111Z,101168.25
2023-09-17T05:42:36.018Z,101167.41
2023-09-17T05:45:04.918Z,101167.41
2023-09-17T05:47:32.971Z,101172.91
2023-09-17T05:50:01.134Z,101172.47
2023-09-17T05:52:30.077Z,101170.50
2023-09-17T05:54:58.098Z,101179.56
2023-09-17T05:57:27.509Z,101176.81
2023-09-17T05:59:55.447Z,101184.22
2023-09-17T06:02:23.638Z,101188.91
2023-09-17T06:04:54.508Z,101186.16
2023-09-17T06:07:22.868Z,101200.66
2023-09-17T06:09:51.117Z,101204.22
2023-09-17T06:12:19.091Z,101207.75
2023-09-17T06:14:48.501Z,101210.47
2023-09-17T06:17:16.645Z,101214.00
2023-09-17T06:19:44.641Z,101202.25
2023-09-17T06:22:13.872Z,101213.22
2023-09-17T06:24:41.932Z,101211.25
2023-09-17T06:27:09.917Z,101210.13
2023-09-17T06:29:37.903Z,101217.56
2023-09-17T06:32:07.653Z,101215.59
2023-09-17T06:34:36.548Z,101224.97
2023-09-17T06:37:05.261Z,101217.56
2023-09-17T06:39:33.366Z,101223.81
2023-09-17T06:42:01.336Z,101217.56
2023-09-17T06:44:29.409Z,101219.47
2023-09-17T06:46:57.656Z,101220.31
2023-09-17T06:49:27.287Z,101220.31
2023-09-17T06:51:55.762Z,101222.22
2023-09-17T06:54:23.793Z,101225.78
2023-09-17T06:56:53.222Z,101224.97
2023-09-17T06:59:21.228Z,101228.53
2023-09-17T07:01:49.278Z,101231.25
2023-09-17T07:04:17.433Z,101227.69
2023-09-17T07:06:46.827Z,101234.78
2023-09-17T07:09:15.396Z,101230.09
2023-09-17T07:11:43.196Z,101235.91
2023-09-17T07:14:11.637Z,101237.88
2023-09-17T07:16:40.512Z,101240.63
2023-09-17T07:19:08.847Z,101241.41
2023-09-17T07:21:36.829Z,101236.75
2023-09-17T07:24:06.743Z,101238.66
2023-09-17T07:26:34.865Z,101243.34
2023-09-17T07:29:04.877Z,101240.63
2023-09-17T07:31:33.200Z,101235.13
2023-09-17T07:34:01.244Z,101244.97
2023-09-17T07:36:29.580Z,101241.41
2023-09-17T07:38:57.765Z,101242.22
2023-09-17T07:41:27.157Z,101236.75
2023-09-17T07:43:55.447Z,101238.31
2023-09-17T07:46:23.786Z,101233.66
2023-09-17T07:48:52.207Z,101244.63
2023-09-17T07:51:20.676Z,101243.78
2023-09-17T07:53:48.586Z,101236.41
2023-09-17T07:56:18.934Z,101237.19
2023-09-17T07:58:48.877Z,101242.66
2023-09-17T08:01:17.212Z,101249.28
2023-09-17T08:03:45.392Z,101248.94
2023-09-17T08:06:13.732Z,101248.94
2023-09-17T08:08:43.815Z,101248.59
2023-09-17T08:11:11.887Z,101246.63
2023-09-17T08:13:39.968Z,101241.16
2023-09-17T08:16:09.445Z,101243.88
2023-09-17T08:18:37.591Z,101237.28
2023-09-17T08:21:05.714Z,101237.28
2023-09-17T08:23:33.728Z,101233.44
2023-09-17T08:26:01.770Z,101237.75
2023-09-17T08:28:29.847Z,101229.53
2023-09-17T08:30:57.985Z,101233.09
2023-09-17T08:33:27.324Z,101230.34
2023-09-17T08:35:55.349Z,101232.25
2023-09-17T08:38:23.427Z,101231.91
2023-09-17T08:40:51.771Z,101222.13
2023-09-17T08:43:20.513Z,101222.13
2023-09-17T08:45:49.132Z,101217.06
2023-09-17T08:48:18.808Z,101224.50
2023-09-17T08:50:51.910Z,101221.78
2023-09-17T08:53:24.480Z,101222.56
2023-09-17T08:55:56.088Z,101224.50
2023-09-17T08:58:27.244Z,101213.19
2023-09-17T09:00:59.135Z,101214.00
2023-09-17T09:03:29.413Z,101218.69
2023-09-17T09:05:59.952Z,101219.47
2023-09-17T09:08:28.467Z,101222.22
2023-09-17T09:10:56.319Z,101214.00
2023-09-17T09:13:24.528Z,101216.72
2023-09-17T09:15:52.961Z,101215.13
2023-09-17T09:18:20.988Z,101232.81
2023-09-17T09:20:49.061Z,101230.09
2023-09-17T09:23:18.651Z,101242.66
2023-09-17T09:25:47.148Z,101236.34
2023-09-17T09:28:14.992Z,101237.94
2023-09-17T09:30:44.768Z,101228.94
2023-09-17T09:33:13.597Z,101227.00
2023-09-17T09:35:42.245Z,101228.56
2023-09-17T09:38:10.124Z,101233.25
2023-09-17T09:40:41.793Z,101223.91
2023-09-17T09:43:19.335Z,101231.31
2023-09-17T09:45:49.344Z,101230.16
2023-09-17T09:48:17.419Z,101227.44
2023-09-17T09:50:47.354Z,101220.81
2023-09-17T09:53:16.107Z,101227.44
2023-09-17T09:55:45.607Z,101228.22
2023-09-17T09:58:14.632Z,101220.81
2023-09-17T10:00:46.405Z,101223.56
2023-09-17T10:03:15.076Z,101218.06
2023-09-17T10:05:43.415Z,101218.84
2023-09-17T10:08:12.260Z,101212.94
2023-09-17T10:10:41.132Z,101215.31
2023-09-17T10:13:11.766Z,101216.91
2023-09-17T10:15:42.624Z,101217.72
2023-09-17T10:18:13.522Z,101219.66
2023-09-17T10:20:42.948Z,101210.63
2023-09-17T10:23:11.918Z,101213.03
2023-09-17T10:25:42.398Z,101211.88
2023-09-17T10:28:13.136Z,101224.00
2023-09-17T10:30:41.548Z,101213.38
2023-09-17T10:33:10.922Z,101216.56
2023-09-17T10:35:39.984Z,101213.03
2023-09-17T10:38:10.398Z,101218.50
2023-09-17T10:40:39.171Z,101216.91
2023-09-17T10:43:07.873Z,101216.13
2023-09-17T10:45:38.957Z,101216.13
2023-09-17T10:48:07.622Z,101219.22
2023-09-17T10:50:38.043Z,101213.72
2023-09-17T10:53:07.045Z,101222.72
2023-09-17T10:55:39.032Z,101214.88
2023-09-17T10:58:12.374Z,101217.59
2023-09-17T11:00:44.297Z,101206.63
2023-09-17T11:03:14.839Z,101212.13
2023-09-17T11:05:44.580Z,101214.88
2023-09-17T11:08:12.760Z,101210.53
2023-09-17T11:10:43.447Z,101206.63
2023-09-17T11:13:15.490Z,101197.63
2023-09-17T11:15:45.234Z,101195.69
2023-09-17T11:18:13.280Z,101194.88
2023-09-17T11:20:59.588Z,101196.84
2023-09-17T11:23:41.128Z,101194.09
2023-09-17T11:26:09.632Z,101196.06
2023-09-17T11:28:38.856Z,101203.47
2023-09-17T11:31:11.384Z,101205.84
2023-09-17T11:33:39.921Z,101207.03
2023-09-17T11:36:08.588Z,101199.59
2023-09-17T11:38:36.657Z,101197.97
2023-09-17T11:41:06.090Z,101204.28
2023-09-17T11:43:35.086Z,101206.19
2023-09-17T11:46:05.989Z,101197.19
2023-09-17T11:48:37.063Z,101209.75
2023-09-17T11:51:25.601Z,101210.53
2023-09-17T11:53:59.270Z,101201.88
2023-09-17T11:56:29.488Z,101198.78
2023-09-17T11:59:07.895Z,101205.06
2023-09-17T12:01:38.714Z,101201.53
2023-09-17T12:04:09.957Z,101203.47
2023-09-17T12:06:41.116Z,101202.31
2023-09-17T12:09:17.223Z,101206.19
2023-09-17T12:11:47.447Z,101207.03
2023-09-17T12:14:16.012Z,101206.19
2023-09-17T12:16:44.406Z,101204.63
2023-09-17T12:19:18.424Z,101208.16
2023-09-17T12:21:49.083Z,101208.94
2023-09-17T12:24:29.413Z,101204.28
2023-09-17T12:27:27.190Z,101207.03
2023-09-17T12:29:55.603Z,101206.19
2023-09-17T12:32:26.350Z,101202.31
2023-09-17T12:34:57.402Z,101211.34
2023-09-17T12:37:26.812Z,101199.59
2023-09-17T12:39:55.437Z,101205.06
2023-09-17T12:42:23.447Z,101208.94
2023-09-17T12:44:52.343Z,101205.84
2023-09-17T12:47:20.954Z,101202.31
2023-09-17T12:49:48.871Z,101199.59
2023-09-17T12:52:18.510Z,101203.91
2023-09-17T12:54:46.739Z,101190.19
2023-09-17T12:57:15.997Z,101187.47
2023-09-17T12:59:44.027Z,101201.97
2023-09-17T13:02:14.608Z,101194.88
2023-09-17T13:04:44.032Z,101191.78
2023-09-17T13:07:18.840Z,101194.53
2023-09-17T13:09:48.046Z,101191.78
2023-09-17T13:12:18.618Z,101186.31
2023-09-17T13:14:49.029Z,101175.34
2023-09-17T13:17:17.538Z,101178.09
2023-09-17T13:19:45.927Z,101173.41
2023-09-17T13:22:14.018Z,101181.63
2023-09-17T13:24:43.766Z,101177.75
2023-09-17T13:27:12.026Z,101183.22
2023-09-17T13:29:41.514Z,101178.09
2023-09-17T13:32:11.863Z,101180.47
2023-09-17T13:34:40.755Z,101177.75
2023-09-17T13:37:09.716Z,101178.88
2023-09-17T13:39:40.411Z,101175.78
2023-09-17T13:42:10.151Z,101171.47
2023-09-17T13:44:38.600Z,101173.06
2023-09-17T13:47:10.648Z,101168.38
2023-09-17T13:49:38.981Z,101164.81
2023-09-17T13:52:08.128Z,101160.94
2023-09-17T13:54:36.187Z,101163.69
2023-09-17T13:57:04.742Z,101159.34
2023-09-17T13:59:33.875Z,101159.00
2023-09-17T14:02:03.204Z,101155.47
2023-09-17T14:04:31.265Z,101154.34
2023-09-17T14:06:59.361Z,101154.69
2023-09-17T14:09:27.536Z,101151.59
2023-09-17T14:11:55.534Z,101151.59
2023-09-17T14:14:23.590Z,101152.72
2023-09-17T14:16:53.067Z,101157.06
2023-09-17T14:19:21.117Z,101159.81
2023-09-17T14:21:49.242Z,101152.38
2023-09-17T14:24:17.445Z,101157.84
2023-09-17T14:26:45.430Z,101161.38
2023-09-17T14:29:13.930Z,101150.00
2023-09-17T14:31:44.329Z,101148.50
2023-09-17T14:34:14.101Z,101143.81
2023-09-17T14:36:42.117Z,101141.06
2023-09-17T14:39:12.191Z,101138.31
2023-09-17T14:41:40.657Z,101134.78
2023-09-17T14:44:09.021Z,101141.06
2023-09-17T14:46:39.679Z,101133.63
2023-09-17T14:49:08.314Z,101138.31
2023-09-17T14:51:37.747Z,101143.44
2023-09-17T14:54:06.575Z,101133.28
2023-09-17T14:56:36.310Z,101136.00
2023-09-17T14:59:05.072Z,101130.53
2023-09-17T15:01:58.483Z,101137.97
2023-09-17T15:04:21.312Z,101135.22
2023-09-17T15:06:51.424Z,101140.34
2023-09-17T15:09:19.723Z,101133.28
2023-09-17T15:11:48.053Z,101141.50
2023-09-17T15:14:16.124Z,101143.09
2023-09-17T15:16:44.407Z,101136.44
2023-09-17T15:19:12.573Z,101138.41
2023-09-17T15:21:40.655Z,101139.56
2023-09-17T15:24:10.212Z,101134.88
2023-09-17T15:26:38.247Z,101136.44
2023-09-17T15:29:06.372Z,101129.81
2023-09-17T15:31:37.471Z,101128.22
2023-09-17T15:34:05.815Z,101137.25
2023-09-17T15:36:34.445Z,101133.72
2023-09-17T15:39:02.195Z,101136.44
2023-09-17T15:41:31.565Z,101140.00
2023-09-17T15:43:59.610Z,101138.84
2023-09-17T15:46:27.679Z,101135.31
2023-09-17T15:48:55.714Z,101140.44
2023-09-17T15:51:23.725Z,101138.06
2023-09-17T15:53:51.859Z,101138.84
2023-09-17T15:56:19.860Z,101132.22
2023-09-17T15:58:49.363Z,101133.00
2023-09-17T16:01:17.536Z,101138.47
2023-09-17T16:03:45.600Z,101138.47
2023-09-17T16:06:13.797Z,101133.00
2023-09-17T16:08:41.756Z,101131.88
2023-09-17T16:11:09.726Z,101131.06
2023-09-17T16:13:37.793Z,101131.88
2023-09-17T16:16:07.218Z,101129.13
2023-09-17T16:18:35.225Z,101129.91
2023-09-17T16:21:03.197Z,101129.13
2023-09-17T16:23:31.224Z,101131.88
2023-09-17T16:25:59.301Z,101129.91
2023-09-17T16:28:27.324Z,101131.50
2023-09-17T16:30:55.335Z,101138.94
2023-09-17T16:33:24.823Z,101136.22
2023-09-17T16:35:52.932Z,101136.22
2023-09-17T16:38:21.528Z,101128.78
2023-09-17T16:40:49.915Z,101123.28
2023-09-17T16:43:18.036Z,101123.28
2023-09-17T16:45:46.141Z,101121.34
2023-09-17T16:48:14.230Z,101131.50
2023-09-17T16:50:43.823Z,101136.22
2023-09-17T16:53:11.783Z,101138.94
2023-09-17T16:55:41.974Z,101133.47
2023-09-17T16:58:10.033Z,101128.41
2023-09-17T17:00:38.058Z,101130.72
2023-09-17T17:03:06.752Z,101124.88
2023-09-17T17:05:34.819Z,101126.81
2023-09-17T17:08:07.834Z,101127.28
2023-09-17T17:10:37.087Z,101122.16
2023-09-17T17:13:05.587Z,101122.16
2023-09-17T17:15:33.335Z,101116.66
2023-09-17T17:18:01.636Z,101118.59
2023-09-17T17:20:29.801Z,101111.53
2023-09-17T17:22:57.870Z,101114.72
2023-09-17T17:25:27.241Z,101115.50
2023-09-17T17:27:55.185Z,101120.19
2023-09-17T17:30:23.432Z,101117.44
2023-09-17T17:32:51.549Z,101123.38
2023-09-17T17:35:21.637Z,101132.75
2023-09-17T17:37:49.719Z,101123.72
2023-09-17T17:40:23.514Z,101131.94
2023-09-17T17:42:53.149Z,101131.59
2023-09-17T17:45:21.833Z,101125.31
2023-09-17T17:47:50.881Z,101118.25
2023-09-17T17:50:19.125Z,101127.28
2023-09-17T17:52:47.239Z,101129.66
2023-09-17T17:55:15.159Z,101135.50
2023-09-17T17:57:44.163Z,101135.50
2023-09-17T18:00:14.942Z,101132.75
2023-09-17T18:02:47.267Z,101134.34
2023-09-17T18:05:15.657Z,101137.88
2023-09-17T18:07:45.329Z,101139.81
2023-09-17T18:10:15.108Z,101138.69
2023-09-17T18:12:43.813Z,101145.31
2023-09-17T18:15:18.802Z,101138.69
2023-09-17T18:17:47.785Z,101143.38
2023-09-17T18:20:17.953Z,101138.69
2023-09-17T18:22:46.062Z,101143.38
2023-09-17T18:25:14.717Z,101135.50
2023-09-17T18:27:42.688Z,101136.28
2023-09-17T18:30:11.317Z,101130.44
2023-09-17T18:32:40.988Z,101124.19
2023-09-17T18:35:09.694Z,101130.44
2023-09-17T18:37:37.748Z,101121.44
2023-09-17T18:40:06.251Z,101130.44
2023-09-17T18:42:34.601Z,101122.22
2023-09-17T18:45:05.337Z,101119.50
2023-09-17T18:47:33.972Z,101122.22
2023-09-17T18:50:03.449Z,101130.44
2023-09-17T18:52:31.497Z,101116.75
2023-09-17T18:55:02.343Z,101127.72
2023-09-17T18:57:30.587Z,101121.44
2023-09-17T18:59:58.939Z,101124.97
2023-09-17T19:02:27.060Z,101121.06
2023-09-17T19:04:55.172Z,101130.44
2023-09-17T19:07:24.592Z,101123.81
2023-09-17T19:09:52.590Z,101121.06
2023-09-17T19:12:23.894Z,101117.53
2023-09-17T19:14:52.106Z,101109.31
2023-09-17T19:17:20.211Z,101112.06
2023-09-17T19:19:48.304Z,101108.53
2023-09-17T19:22:17.716Z,101109.31
2023-09-17T19:24:47.064Z,101110.09
2023-09-17T19:27:16.205Z,101103.81
2023-09-17T19:29:44.279Z,101106.56
2023-09-17T19:32:13.097Z,101106.56
2023-09-17T19:34:41.664Z,101099.13
2023-09-17T19:37:12.724Z,101104.59
2023-09-17T19:39:41.009Z,101098.00
2023-09-17T19:42:10.439Z,101096.38
2023-09-17T19:44:38.573Z,101093.28
2023-09-17T19:47:07.170Z,101093.63
2023-09-17T19:49:35.336Z,101088.16
2023-09-17T19:52:03.494Z,101099.13
2023-09-17T19:54:31.545Z,101088.16
2023-09-17T19:56:59.579Z,101082.69
2023-09-17T19:59:29.061Z,101081.88
2023-09-17T20:01:57.274Z,101079.94
2023-09-17T20:04:25.440Z,101088.63
2023-09-17T20:06:55.459Z,101079.94
2023-09-17T20:09:24.298Z,101078.00
2023-09-17T20:11:52.609Z,101079.94
2023-09-17T20:14:21.506Z,101084.28
2023-09-17T20:16:50.988Z,101074.09
2023-09-17T20:19:19.020Z,101077.19
2023-09-17T20:21:47.089Z,101076.06
2023-09-17T20:24:15.232Z,101069.44
2023-09-17T20:26:45.808Z,101070.94
2023-09-17T20:29:14.120Z,101074.44
2023-09-17T20:31:42.383Z,101079.59
2023-09-17T20:34:14.985Z,101063.13
2023-09-17T20:36:44.197Z,101062.34
2023-09-17T20:39:12.175Z,101067.03
2023-09-17T20:41:40.700Z,101063.13
2023-09-17T20:44:08.529Z,101060.75
2023-09-17T20:46:36.561Z,101065.88
2023-09-17T20:49:04.680Z,101067.03
2023-09-17T20:51:34.150Z,101063.13
2023-09-17T20:54:02.088Z,101064.72
2023-09-17T20:56:30.178Z,101058.47
2023-09-17T21:01:33.644Z,101050.25
2023-09-17T21:04:02.141Z,101054.13
2023-09-17T21:06:30.361Z,101046.69
2023-09-17T21:09:04.562Z,101041.19
2023-09-17T21:11:32.814Z,101045.09
2023-09-17T21:14:00.842Z,101042.81
2023-09-17T21:16:29.466Z,101040.41
2023-09-17T21:18:57.551Z,101041.19
2023-09-17T21:21:25.548Z,101039.28
2023-09-17T21:23:53.616Z,101044.75
2023-09-17T21:26:22.971Z,101046.69
2023-09-17T21:28:51.297Z,101039.63
2023-09-17T21:31:19.455Z,101047.03
2023-09-17T21:33:47.577Z,101041.56
2023-09-17T21:36:15.596Z,101041.19
2023-09-17T21:38:43.621Z,101040.78
2023-09-17T21:41:11.854Z,101041.19
2023-09-17T21:43:41.281Z,101032.97
2023-09-17T21:46:09.407Z,101033.34
2023-09-17T21:48:37.406Z,101036.06
2023-09-17T21:51:05.534Z,101031.41
2023-09-17T21:53:33.562Z,101032.97
2023-09-17T21:56:01.620Z,101025.91
2023-09-17T21:58:29.659Z,101028.66
2023-09-17T22:00:59.035Z,101025.09
2023-09-17T22:03:27.334Z,101022.38
2023-09-17T22:05:55.447Z,101025.91
2023-09-17T22:08:25.287Z,101021.56
2023-09-17T22:10:53.335Z,101028.66
2023-09-17T22:13:21.318Z,101031.41
2023-09-17T22:15:52.858Z,101034.94
2023-09-17T22:18:22.213Z,101026.72
2023-09-17T22:20:50.238Z,101022.38
2023-09-17T22:23:19.188Z,101023.19
2023-09-17T22:25:47.142Z,101025.09
2023-09-17T22:28:16.123Z,101018.47
2023-09-17T22:30:44.099Z,101014.13
2023-09-17T22:33:12.113Z,101019.25
2023-09-17T22:35:42.017Z,101016.53
2023-09-17T22:38:10.538Z,101019.63
2023-09-17T22:40:40.306Z,101012.56
2023-09-17T22:43:09.390Z,101013.34
2023-09-17T22:45:39.339Z,101016.53
2023-09-17T22:48:07.860Z,101011.41
2023-09-17T22:50:35.747Z,101013.34
2023-09-17T22:53:05.456Z,101009.81
2023-09-17T22:55:33.482Z,101013.34
2023-09-17T22:58:01.480Z,101005.91
2023-09-17T23:00:32.500Z,101005.13
2023-09-17T23:03:00.688Z,101005.91
2023-09-17T23:05:28.855Z,101003.16
2023-09-17T23:07:56.913Z,101007.88
2023-09-17T23:10:26.349Z,101016.09
2023-09-17T23:12:54.336Z,101014.13
2023-09-17T23:15:22.428Z,101022.38
2023-09-17T23:17:50.389Z,101024.31
2023-09-17T23:20:18.416Z,101025.09
2023-09-17T23:22:46.386Z,101009.03
2023-09-17T23:25:15.601Z,101005.13
2023-09-17T23:27:44.916Z,101007.09
2023-09-17T23:30:16.647Z,101004.34
2023-09-17T23:32:45.250Z,101005.91
2023-09-17T23:35:13.358Z,101007.09
2023-09-17T23:37:41.376Z,101004.34
2023-09-17T23:40:11.599Z,101000.44
2023-09-17T23:42:39.577Z,100998.06
2023-09-17T23:45:10.072Z,100998.84
2023-09-17T23:47:38.149Z,100987.91
2023-09-17T23:50:07.313Z,100987.09
2023-09-17T23:52:35.198Z,100984.38
2023-09-17T23:55:03.800Z,100992.59
2023-09-17T23:57:31.866Z,100982.41
